Time;durP1;ratioP1;P1;durP2;ratioP2;P2;SDS_P1;SDS_P2;PMS_P1;PMS_P2;Temp;Humidity;BMP_temperature;BMP_pressure;BME280_temperature;BME280_humidity;BME280_pressure;Samples;Min_cycle;Max_cycle;Signal;HPM_P1;HPM_P2
2023/03/31 00:00:13;;;;;;;57.25;12.77;;;;;;;;;;4917214;28;20719;-70
2023/03/31 00:02:41;;;;;;;49.00;11.45;;;;;;;;;;4947777;28;20031;-69
2023/03/31 00:05:08;;;;;;;54.05;12.82;;;;;;;;;;4915191;28;20105;-69
2023/03/31 00:07:36;;;;;;;51.10;11.05;;;;;;;;;;4922117;28;20472;-69
2023/03/31 00:10:03;;;;;;;49.78;10.02;;;;;;;;;;4918985;28;20173;-68
2023/03/31 00:12:28;;;;;;;47.72;9.68;;;;;;;;;;4918126;28;20039;-67
2023/03/31 00:14:54;;;;;;;45.22;8.60;;;;;;;;;;4917413;28;20035;-70
2023/03/31 00:17:19;;;;;;;40.75;8.02;;;;;;;;;;4917425;28;20047;-70
2023/03/31 00:19:48;;;;;;;39.45;7.20;;;;;;;;;;4918673;28;20043;-70
2023/03/31 00:22:21;;;;;;;41.60;8.32;;;;;;;;;;4901737;28;20629;-70
2023/03/31 00:24:47;;;;;;;35.83;7.53;;;;;;;;;;4917913;28;20716;-69
2023/03/31 00:27:12;;;;;;;39.00;7.70;;;;;;;;;;4921139;28;20051;-70
2023/03/31 00:29:40;;;;;;;39.65;7.22;;;;;;;;;;4919904;28;20058;-69
2023/03/31 00:32:06;;;;;;;46.75;9.55;;;;;;;;;;4917180;28;20040;-69
2023/03/31 00:34:31;;;;;;;42.85;8.32;;;;;;;;;;4918154;28;20057;-70
2023/03/31 00:37:01;;;;;;;38.15;9.18;;;;;;;;;;4919226;28;20043;-71
2023/03/31 00:39:30;;;;;;;46.70;12.35;;;;;;;;;;4946436;28;20039;-70
2023/03/31 00:41:56;;;;;;;47.97;10.75;;;;;;;;;;4917421;28;20055;-70
2023/03/31 00:44:24;;;;;;;40.50;6.75;;;;;;;;;;4902836;28;20035;-70
2023/03/31 00:46:50;;;;;;;32.47;8.40;;;;;;;;;;4914874;28;20043;-69
2023/03/31 00:49:26;;;;;;;40.78;11.65;;;;;;;;;;4920098;28;20527;-69
2023/03/31 00:51:53;;;;;;;46.90;14.10;;;;;;;;;;4916616;28;20569;-69
2023/03/31 00:54:22;;;;;;;48.90;12.48;;;;;;;;;;4919534;28;20658;-69
2023/03/31 00:56:48;;;;;;;40.25;11.55;;;;;;;;;;4918552;28;20126;-69
2023/03/31 00:59:16;;;;;;;45.22;13.35;;;;;;;;;;4918774;28;20486;-70
2023/03/31 01:01:44;;;;;;;39.08;9.60;;;;;;;;;;4912477;28;20043;-69
2023/03/31 01:04:11;;;;;;;42.08;10.55;;;;;;;;;;4918615;28;20126;-70
2023/03/31 01:06:46;;;;;;;44.20;11.68;;;;;;;;;;4916719;28;20039;-68
2023/03/31 01:09:15;;;;;;;40.03;11.70;;;;;;;;;;4919542;28;20146;-71
2023/03/31 01:11:42;;;;;;;45.92;14.70;;;;;;;;;;4916093;28;20043;-70
2023/03/31 01:14:09;;;;;;;37.80;11.15;;;;;;;;;;4915689;28;20093;-65
2023/03/31 01:16:38;;;;;;;37.15;9.95;;;;;;;;;;4902324;28;20081;-65
2023/03/31 01:19:06;;;;;;;29.00;9.95;;;;;;;;;;4917173;28;20039;-66
2023/03/31 01:21:31;;;;;;;39.65;9.80;;;;;;;;;;4920496;28;20077;-64
2023/03/31 01:24:08;;;;;;;35.85;10.43;;;;;;;;;;4931585;28;20031;-65
2023/03/31 01:26:53;;;;;;;36.83;9.82;;;;;;;;;;4923183;28;20057;-66
2023/03/31 01:29:28;;;;;;;32.33;9.52;;;;;;;;;;4916512;28;20551;-65
2023/03/31 01:31:56;;;;;;;41.97;9.38;;;;;;;;;;4921709;28;20708;-65
2023/03/31 01:34:25;;;;;;;33.80;10.00;;;;;;;;;;4919735;28;20058;-65
2023/03/31 01:37:17;;;;;;;24.40;8.20;;;;;;;;;;4952068;28;20032;-66
2023/03/31 01:40:07;;;;;;;35.50;11.88;;;;;;;;;;4923023;28;20039;-66
2023/03/31 01:42:38;;;;;;;31.30;9.77;;;;;;;;;;4921761;28;21735;-66
2023/03/31 01:45:15;;;;;;;30.27;11.05;;;;;;;;;;4922745;28;20094;-65
2023/03/31 01:47:43;;;;;;;33.67;12.02;;;;;;;;;;4917367;28;20113;-66
2023/03/31 01:50:11;;;;;;;36.72;13.70;;;;;;;;;;4922298;28;21027;-65
2023/03/31 01:52:42;;;;;;;40.55;17.67;;;;;;;;;;4918442;28;20118;-66
2023/03/31 01:55:19;;;;;;;38.65;20.60;;;;;;;;;;4920647;28;20126;-66
2023/03/31 01:57:49;;;;;;;31.48;16.17;;;;;;;;;;4917646;28;20038;-65
2023/03/31 02:00:17;;;;;;;30.70;13.23;;;;;;;;;;4934839;28;20578;-66
2023/03/31 02:03:15;;;;;;;33.38;13.15;;;;;;;;;;4922505;28;20567;-67
2023/03/31 02:05:46;;;;;;;36.92;13.00;;;;;;;;;;4936813;28;20214;-65
2023/03/31 02:08:21;;;;;;;52.13;21.13;;;;;;;;;;4922116;28;20039;-65
2023/03/31 02:10:47;;;;;;;44.58;16.40;;;;;;;;;;4922461;28;20039;-65
2023/03/31 02:13:16;;;;;;;54.95;19.65;;;;;;;;;;4921081;28;20979;-65
2023/03/31 02:15:46;;;;;;;61.72;23.67;;;;;;;;;;4923311;28;20082;-65
2023/03/31 02:18:16;;;;;;;90.70;32.42;;;;;;;;;;4915844;28;20048;-66
2023/03/31 02:20:41;;;;;;;93.05;34.92;;;;;;;;;;4919451;28;20035;-65
2023/03/31 02:23:08;;;;;;;73.05;29.85;;;;;;;;;;4919848;28;20074;-65
2023/03/31 02:26:00;;;;;;;72.35;28.90;;;;;;;;;;4923129;28;20102;-65
2023/03/31 02:28:26;;;;;;;48.20;18.38;;;;;;;;;;4919854;28;20036;-66
2023/03/31 02:31:03;;;;;;;46.55;18.60;;;;;;;;;;4920703;28;20051;-65
2023/03/31 02:33:29;;;;;;;43.00;18.40;;;;;;;;;;4918327;28;20051;-65
2023/03/31 02:35:54;;;;;;;43.03;17.83;;;;;;;;;;4920567;28;20111;-65
2023/03/31 02:38:19;;;;;;;32.45;17.08;;;;;;;;;;4902766;28;20039;-65
2023/03/31 02:40:45;;;;;;;36.25;18.15;;;;;;;;;;4922132;28;20059;-66
2023/03/31 02:43:10;;;;;;;45.00;17.35;;;;;;;;;;4935206;28;20127;-66
2023/03/31 02:45:38;;;;;;;43.90;15.68;;;;;;;;;;4923909;28;20104;-65
2023/03/31 02:48:11;;;;;;;50.90;16.67;;;;;;;;;;4918124;28;20046;-66
2023/03/31 02:50:42;;;;;;;38.28;12.88;;;;;;;;;;4921211;28;20047;-66
2023/03/31 02:53:31;;;;;;;69.43;19.45;;;;;;;;;;4950577;28;20067;-66
2023/03/31 02:55:56;;;;;;;64.13;22.30;;;;;;;;;;4945572;28;22261;-64
2023/03/31 02:58:26;;;;;;;61.50;21.38;;;;;;;;;;4920279;28;20031;-66
2023/03/31 03:01:10;;;;;;;48.15;19.10;;;;;;;;;;4950850;28;20209;-65
2023/03/31 03:03:50;;;;;;;49.70;18.67;;;;;;;;;;4920458;28;20567;-66
2023/03/31 03:06:16;;;;;;;51.13;20.30;;;;;;;;;;4920451;28;22212;-65
2023/03/31 03:09:03;;;;;;;51.33;19.25;;;;;;;;;;4921240;28;20067;-64
2023/03/31 03:11:35;;;;;;;53.75;19.27;;;;;;;;;;4919675;28;20416;-63
2023/03/31 03:14:08;;;;;;;43.78;14.60;;;;;;;;;;4950548;28;20045;-64
2023/03/31 03:16:40;;;;;;;44.88;15.35;;;;;;;;;;4948673;28;20031;-64
2023/03/31 03:19:06;;;;;;;42.25;14.15;;;;;;;;;;4936278;28;20085;-65
2023/03/31 03:21:31;;;;;;;27.10;9.13;;;;;;;;;;4919713;28;20040;-65
2023/03/31 03:23:58;;;;;;;27.17;9.52;;;;;;;;;;4950621;28;20031;-66
2023/03/31 03:26:26;;;;;;;23.63;10.18;;;;;;;;;;4919935;28;20123;-65
2023/03/31 03:28:55;;;;;;;26.75;10.95;;;;;;;;;;4919101;28;20032;-65
2023/03/31 03:31:22;;;;;;;28.08;9.73;;;;;;;;;;4921260;28;20739;-65
2023/03/31 03:33:51;;;;;;;25.98;10.20;;;;;;;;;;4920996;28;20118;-65
2023/03/31 03:36:17;;;;;;;25.42;9.85;;;;;;;;;;4920486;28;20039;-66
2023/03/31 03:38:42;;;;;;;30.75;11.95;;;;;;;;;;4936571;28;20085;-65
2023/03/31 03:41:07;;;;;;;28.25;10.23;;;;;;;;;;4920781;28;20036;-66
2023/03/31 03:43:33;;;;;;;26.95;11.60;;;;;;;;;;4918735;28;20035;-65
2023/03/31 03:45:58;;;;;;;27.52;11.15;;;;;;;;;;4916317;28;21659;-65
2023/03/31 03:48:23;;;;;;;26.67;10.48;;;;;;;;;;4918529;28;20811;-65
2023/03/31 03:50:49;;;;;;;23.80;10.27;;;;;;;;;;4918710;28;20147;-66
2023/03/31 03:53:14;;;;;;;28.70;10.88;;;;;;;;;;4918827;28;20492;-65
2023/03/31 03:55:40;;;;;;;28.73;10.18;;;;;;;;;;4922331;28;20085;-65
2023/03/31 03:58:05;;;;;;;28.38;10.95;;;;;;;;;;4919660;28;20031;-65
2023/03/31 04:00:30;;;;;;;24.70;9.57;;;;;;;;;;4919832;28;20050;-65
2023/03/31 04:02:55;;;;;;;21.45;8.82;;;;;;;;;;4916929;28;20094;-66
2023/03/31 04:05:21;;;;;;;28.08;10.07;;;;;;;;;;4921411;28;20110;-64
2023/03/31 04:07:46;;;;;;;33.70;11.57;;;;;;;;;;4921325;28;21037;-66
2023/03/31 04:10:12;;;;;;;39.50;11.93;;;;;;;;;;4922071;28;20051;-67
2023/03/31 04:12:37;;;;;;;22.92;10.07;;;;;;;;;;4919002;28;20063;-66
2023/03/31 04:15:05;;;;;;;23.13;10.35;;;;;;;;;;4920233;28;20031;-66
2023/03/31 04:17:33;;;;;;;22.30;8.80;;;;;;;;;;4917867;28;20089;-65
2023/03/31 04:20:04;;;;;;;20.13;8.27;;;;;;;;;;4918489;28;20801;-65
2023/03/31 04:22:33;;;;;;;26.27;9.48;;;;;;;;;;4913230;28;20400;-67
2023/03/31 04:24:59;;;;;;;29.40;11.63;;;;;;;;;;4933697;28;21356;-66
2023/03/31 04:27:26;;;;;;;24.45;9.45;;;;;;;;;;4917300;28;20042;-66
2023/03/31 04:29:54;;;;;;;23.13;10.48;;;;;;;;;;4917089;28;20957;-65
2023/03/31 04:32:22;;;;;;;20.83;7.70;;;;;;;;;;4915583;28;20043;-64
2023/03/31 04:34:49;;;;;;;20.00;8.38;;;;;;;;;;4918675;28;20035;-64
2023/03/31 04:37:17;;;;;;;17.80;6.90;;;;;;;;;;4916581;28;20036;-64
2023/03/31 04:39:45;;;;;;;19.48;6.63;;;;;;;;;;4919461;28;20051;-64
2023/03/31 04:42:13;;;;;;;18.80;6.43;;;;;;;;;;4914877;28;20181;-63
2023/03/31 04:44:39;;;;;;;18.42;7.20;;;;;;;;;;4916640;28;20154;-64
2023/03/31 04:47:05;;;;;;;12.20;5.00;;;;;;;;;;4924204;28;20492;-63
2023/03/31 04:49:32;;;;;;;15.90;6.25;;;;;;;;;;4916868;28;20082;-65
2023/03/31 04:51:57;;;;;;;18.27;7.97;;;;;;;;;;4916520;28;20112;-65
2023/03/31 04:54:22;;;;;;;18.77;8.43;;;;;;;;;;4917291;28;20039;-63
2023/03/31 04:56:48;;;;;;;16.75;8.23;;;;;;;;;;4915975;28;20576;-66
2023/03/31 04:59:13;;;;;;;32.22;12.75;;;;;;;;;;4911254;28;20054;-63
2023/03/31 05:01:44;;;;;;;27.65;12.07;;;;;;;;;;4917040;28;20035;-64
2023/03/31 05:04:10;;;;;;;30.38;12.35;;;;;;;;;;4917516;28;20753;-64
2023/03/31 05:06:35;;;;;;;27.48;12.93;;;;;;;;;;4919260;28;20036;-64
2023/03/31 05:09:00;;;;;;;29.27;12.55;;;;;;;;;;4921984;28;20059;-65
2023/03/31 05:11:26;;;;;;;30.80;14.23;;;;;;;;;;4918915;28;20508;-65
2023/03/31 05:13:51;;;;;;;96.43;32.28;;;;;;;;;;4918116;28;20036;-65
2023/03/31 05:16:20;;;;;;;166.95;47.92;;;;;;;;;;4944313;28;20035;-65
2023/03/31 05:18:46;;;;;;;173.35;52.90;;;;;;;;;;4904997;28;20153;-66
2023/03/31 05:21:16;;;;;;;60.05;25.35;;;;;;;;;;4920814;28;20043;-65
2023/03/31 05:23:42;;;;;;;34.42;15.45;;;;;;;;;;4915142;28;20093;-65
2023/03/31 05:26:07;;;;;;;62.60;21.13;;;;;;;;;;4921562;28;20028;-64
2023/03/31 05:28:35;;;;;;;44.90;18.25;;;;;;;;;;4925351;28;20575;-64
2023/03/31 05:31:01;;;;;;;69.72;26.05;;;;;;;;;;4902688;28;20043;-64
2023/03/31 05:33:26;;;;;;;66.78;26.85;;;;;;;;;;4954812;28;20043;-63
2023/03/31 05:35:54;;;;;;;59.40;22.63;;;;;;;;;;4921304;28;20111;-66
2023/03/31 05:38:20;;;;;;;49.63;18.55;;;;;;;;;;4921631;28;20634;-64
2023/03/31 05:40:46;;;;;;;62.67;25.38;;;;;;;;;;4945440;28;20050;-65
2023/03/31 05:43:11;;;;;;;41.90;17.17;;;;;;;;;;4921033;28;20042;-65
2023/03/31 05:45:36;;;;;;;43.45;18.13;;;;;;;;;;4925666;28;20957;-64
2023/03/31 05:48:02;;;;;;;65.18;26.23;;;;;;;;;;4913618;28;20127;-64
2023/03/31 05:50:27;;;;;;;63.10;27.75;;;;;;;;;;4924994;28;20039;-64
2023/03/31 05:52:56;;;;;;;51.78;21.23;;;;;;;;;;4921066;28;20043;-64
2023/03/31 05:55:24;;;;;;;49.72;22.48;;;;;;;;;;4920863;28;20077;-65
2023/03/31 05:57:49;;;;;;;65.30;31.33;;;;;;;;;;4904791;28;20051;-64
2023/03/31 06:00:17;;;;;;;55.40;27.70;;;;;;;;;;4921474;28;20046;-65
2023/03/31 06:02:42;;;;;;;57.05;25.98;;;;;;;;;;5003802;28;20158;-64
2023/03/31 06:05:08;;;;;;;73.97;29.77;;;;;;;;;;4920960;28;20059;-64
2023/03/31 06:07:33;;;;;;;66.07;29.45;;;;;;;;;;4923946;28;20499;-63
2023/03/31 06:09:59;;;;;;;80.15;35.85;;;;;;;;;;4917864;28;20086;-65
2023/03/31 06:12:24;;;;;;;68.63;32.00;;;;;;;;;;4920048;28;20545;-64
2023/03/31 06:14:49;;;;;;;69.07;29.42;;;;;;;;;;4919983;28;20918;-64
2023/03/31 06:17:15;;;;;;;71.78;30.70;;;;;;;;;;4921420;28;22238;-63
2023/03/31 06:19:42;;;;;;;59.63;28.50;;;;;;;;;;4922835;28;20473;-65
2023/03/31 06:22:07;;;;;;;64.50;31.40;;;;;;;;;;4921290;28;21272;-65
2023/03/31 06:24:35;;;;;;;62.25;28.15;;;;;;;;;;4922084;28;20043;-63
2023/03/31 06:27:02;;;;;;;54.40;26.25;;;;;;;;;;4923824;28;20049;-64
2023/03/31 06:29:30;;;;;;;61.95;25.08;;;;;;;;;;4922611;28;20047;-65
2023/03/31 06:31:55;;;;;;;53.97;23.00;;;;;;;;;;4920148;28;20922;-64
2023/03/31 06:34:21;;;;;;;67.80;25.60;;;;;;;;;;4922673;28;20050;-65
2023/03/31 06:36:46;;;;;;;60.85;26.63;;;;;;;;;;4921209;28;20046;-64
2023/03/31 06:39:11;;;;;;;82.50;34.53;;;;;;;;;;4922884;28;20390;-64
2023/03/31 06:41:37;;;;;;;59.97;24.73;;;;;;;;;;4920341;28;20477;-64
2023/03/31 06:44:05;;;;;;;56.25;22.90;;;;;;;;;;4916488;28;20045;-64
2023/03/31 06:46:30;;;;;;;47.58;24.70;;;;;;;;;;4922534;28;20767;-64
2023/03/31 06:48:55;;;;;;;54.40;23.83;;;;;;;;;;4920934;28;20093;-64
2023/03/31 06:51:21;;;;;;;33.58;15.35;;;;;;;;;;4905172;28;20053;-63
2023/03/31 06:53:49;;;;;;;132.70;45.35;;;;;;;;;;4919532;28;20729;-64
2023/03/31 06:56:14;;;;;;;44.92;19.98;;;;;;;;;;4923450;28;20042;-65
2023/03/31 06:58:39;;;;;;;68.32;23.17;;;;;;;;;;4912803;28;20043;-65
2023/03/31 07:01:05;;;;;;;35.80;15.82;;;;;;;;;;4920466;28;20036;-66
2023/03/31 07:03:31;;;;;;;47.80;20.23;;;;;;;;;;4921317;28;20035;-65
2023/03/31 07:05:59;;;;;;;33.63;14.35;;;;;;;;;;4922565;28;20544;-65
2023/03/31 07:08:24;;;;;;;49.08;21.83;;;;;;;;;;4921114;28;20027;-67
2023/03/31 07:10:53;;;;;;;77.85;29.55;;;;;;;;;;4919572;28;20074;-65
2023/03/31 07:13:22;;;;;;;91.50;34.47;;;;;;;;;;4963777;28;20050;-65
2023/03/31 07:15:49;;;;;;;97.35;35.55;;;;;;;;;;4920152;28;20508;-66
2023/03/31 07:18:15;;;;;;;109.05;39.88;;;;;;;;;;4920893;28;20152;-64
2023/03/31 07:20:41;;;;;;;75.20;30.83;;;;;;;;;;4970217;28;20036;-65
2023/03/31 07:23:07;;;;;;;80.15;32.70;;;;;;;;;;4931914;28;20519;-66
2023/03/31 07:25:33;;;;;;;33.85;14.85;;;;;;;;;;4922247;28;22255;-66
2023/03/31 07:27:58;;;;;;;25.15;11.77;;;;;;;;;;4929658;28;20108;-66
2023/03/31 07:30:23;;;;;;;34.00;15.27;;;;;;;;;;4919428;28;21085;-66
2023/03/31 07:32:51;;;;;;;19.98;9.63;;;;;;;;;;4955954;28;20046;-67
2023/03/31 07:35:20;;;;;;;18.40;8.57;;;;;;;;;;4919287;28;20043;-65
2023/03/31 07:37:46;;;;;;;24.27;11.43;;;;;;;;;;4920223;28;20051;-66
2023/03/31 07:40:16;;;;;;;39.63;14.43;;;;;;;;;;4923701;28;22290;-65
2023/03/31 07:42:42;;;;;;;32.75;13.63;;;;;;;;;;4918478;28;20112;-65
2023/03/31 07:45:07;;;;;;;27.70;12.50;;;;;;;;;;4918295;28;20040;-65
2023/03/31 07:47:35;;;;;;;46.92;19.45;;;;;;;;;;4918049;28;20047;-66
2023/03/31 07:50:01;;;;;;;31.52;14.68;;;;;;;;;;4919842;28;20051;-65
2023/03/31 07:52:26;;;;;;;39.03;15.70;;;;;;;;;;4915900;28;20051;-66
2023/03/31 07:54:52;;;;;;;28.80;13.40;;;;;;;;;;4917855;28;20648;-65
2023/03/31 07:57:19;;;;;;;28.65;13.93;;;;;;;;;;4919231;28;22322;-66
2023/03/31 07:59:45;;;;;;;21.15;11.95;;;;;;;;;;4917187;28;20050;-66
2023/03/31 08:02:14;;;;;;;30.15;13.25;;;;;;;;;;4912622;28;20046;-66
2023/03/31 08:04:41;;;;;;;20.40;9.30;;;;;;;;;;4916123;28;20040;-67
2023/03/31 08:07:06;;;;;;;27.10;10.50;;;;;;;;;;4999738;28;20070;-67
2023/03/31 08:09:33;;;;;;;22.65;10.60;;;;;;;;;;4921155;28;20075;-67
2023/03/31 08:11:58;;;;;;;18.13;9.25;;;;;;;;;;4920195;28;20106;-67
2023/03/31 08:14:23;;;;;;;18.15;9.20;;;;;;;;;;4915181;28;20116;-66
2023/03/31 08:16:50;;;;;;;23.40;10.82;;;;;;;;;;4913924;28;20431;-66
2023/03/31 08:19:17;;;;;;;23.50;8.55;;;;;;;;;;4931154;28;20089;-66
2023/03/31 08:21:45;;;;;;;18.60;7.72;;;;;;;;;;4919942;28;20108;-67
2023/03/31 08:24:10;;;;;;;17.52;7.88;;;;;;;;;;4919917;28;20035;-67
2023/03/31 08:26:35;;;;;;;20.98;6.93;;;;;;;;;;4918636;28;20035;-67
2023/03/31 08:29:00;;;;;;;24.73;7.82;;;;;;;;;;4922038;28;20047;-66
2023/03/31 08:31:27;;;;;;;21.70;7.40;;;;;;;;;;4922273;28;20161;-65
2023/03/31 08:33:53;;;;;;;36.20;18.63;;;;;;;;;;4918041;28;20069;-66
2023/03/31 08:36:19;;;;;;;22.90;8.60;;;;;;;;;;4919244;28;20039;-66
2023/03/31 08:38:48;;;;;;;25.08;7.13;;;;;;;;;;4919145;28;20046;-67
2023/03/31 08:41:25;;;;;;;28.48;6.65;;;;;;;;;;4920797;28;20043;-66
2023/03/31 08:43:51;;;;;;;23.30;7.07;;;;;;;;;;4916817;28;20063;-66
2023/03/31 08:46:17;;;;;;;25.98;6.72;;;;;;;;;;4917792;28;20207;-67
2023/03/31 08:48:49;;;;;;;27.48;8.30;;;;;;;;;;4911813;28;20069;-66
2023/03/31 08:51:20;;;;;;;22.02;8.00;;;;;;;;;;4916226;28;20043;-67
2023/03/31 08:53:51;;;;;;;22.08;6.95;;;;;;;;;;4915233;28;20585;-67
2023/03/31 08:56:18;;;;;;;30.58;6.03;;;;;;;;;;4915441;28;20050;-67
2023/03/31 08:58:45;;;;;;;22.88;7.13;;;;;;;;;;4917691;28;20101;-67
2023/03/31 09:01:20;;;;;;;26.38;6.63;;;;;;;;;;4912911;28;20040;-67
2023/03/31 09:03:52;;;;;;;24.30;6.28;;;;;;;;;;4940320;28;20378;-67
2023/03/31 09:06:22;;;;;;;18.45;6.55;;;;;;;;;;4961730;28;20042;-67
2023/03/31 09:08:47;;;;;;;15.95;6.78;;;;;;;;;;4915002;28;20062;-67
2023/03/31 09:11:19;;;;;;;19.67;5.80;;;;;;;;;;4929167;28;20062;-68
2023/03/31 09:14:00;;;;;;;24.77;7.20;;;;;;;;;;4916943;28;20519;-67
2023/03/31 09:16:29;;;;;;;26.88;6.53;;;;;;;;;;4914440;28;20047;-66
2023/03/31 09:18:59;;;;;;;19.65;6.95;;;;;;;;;;4918510;28;20039;-66
2023/03/31 09:21:45;;;;;;;24.42;6.90;;;;;;;;;;4928591;28;20935;-67
2023/03/31 09:24:16;;;;;;;17.85;5.25;;;;;;;;;;4915391;28;20039;-68
2023/03/31 09:26:47;;;;;;;22.30;6.43;;;;;;;;;;4912130;28;20085;-68
2023/03/31 09:29:18;;;;;;;24.25;7.18;;;;;;;;;;4912554;28;20040;-68
2023/03/31 09:31:44;;;;;;;25.60;6.72;;;;;;;;;;4914341;28;20085;-68
2023/03/31 09:34:14;;;;;;;19.60;5.97;;;;;;;;;;4943846;28;20040;-67
2023/03/31 09:36:40;;;;;;;14.57;5.90;;;;;;;;;;4912202;28;20151;-67
2023/03/31 09:39:05;;;;;;;21.42;6.80;;;;;;;;;;4914246;28;20034;-67
2023/03/31 09:41:30;;;;;;;17.65;6.80;;;;;;;;;;4914167;28;20078;-68
2023/03/31 09:43:56;;;;;;;19.80;7.53;;;;;;;;;;4912674;28;20035;-67
2023/03/31 09:46:34;;;;;;;27.08;8.60;;;;;;;;;;4914214;28;20709;-68
2023/03/31 09:49:09;;;;;;;19.95;6.90;;;;;;;;;;4930607;28;20035;-68
2023/03/31 09:51:40;;;;;;;27.48;7.43;;;;;;;;;;4911597;28;20044;-68
2023/03/31 09:54:24;;;;;;;19.00;6.47;;;;;;;;;;4919011;28;20040;-69
2023/03/31 09:56:52;;;;;;;20.58;5.80;;;;;;;;;;4918187;28;20066;-67
2023/03/31 09:59:19;;;;;;;22.63;6.38;;;;;;;;;;4918221;28;20142;-68
2023/03/31 10:01:45;;;;;;;19.25;6.65;;;;;;;;;;4945878;28;20612;-68
2023/03/31 10:04:16;;;;;;;20.90;5.00;;;;;;;;;;4917636;28;20144;-67
2023/03/31 10:06:42;;;;;;;20.83;5.80;;;;;;;;;;4919201;28;20460;-67
2023/03/31 10:09:09;;;;;;;20.63;6.03;;;;;;;;;;4918946;28;22013;-68
2023/03/31 10:11:35;;;;;;;21.85;7.18;;;;;;;;;;4931711;28;20391;-67
2023/03/31 10:14:05;;;;;;;24.65;6.35;;;;;;;;;;4917557;28;20039;-68
2023/03/31 10:16:31;;;;;;;24.63;7.50;;;;;;;;;;4916607;28;20071;-67
2023/03/31 10:19:15;;;;;;;19.83;5.80;;;;;;;;;;4917771;28;20085;-69
2023/03/31 10:21:44;;;;;;;17.92;5.15;;;;;;;;;;4916531;28;20043;-69
2023/03/31 10:24:09;;;;;;;20.65;6.30;;;;;;;;;;4917408;28;22156;-69
2023/03/31 10:26:35;;;;;;;24.33;8.65;;;;;;;;;;4918664;28;20034;-69
2023/03/31 10:29:00;;;;;;;24.52;7.50;;;;;;;;;;4915343;28;20046;-69
2023/03/31 10:31:32;;;;;;;22.98;6.05;;;;;;;;;;4931594;28;20241;-68
2023/03/31 10:33:58;;;;;;;22.52;6.88;;;;;;;;;;4916452;28;20043;-69
2023/03/31 10:36:28;;;;;;;20.85;5.88;;;;;;;;;;4948867;28;20089;-70
2023/03/31 10:38:54;;;;;;;27.58;9.02;;;;;;;;;;4914782;28;20046;-70
2023/03/31 10:41:20;;;;;;;28.38;7.20;;;;;;;;;;4918631;28;20043;-70
2023/03/31 10:43:50;;;;;;;24.38;7.18;;;;;;;;;;4914035;28;20036;-69
2023/03/31 10:46:15;;;;;;;16.08;5.43;;;;;;;;;;4922147;28;20035;-70
2023/03/31 10:48:41;;;;;;;15.05;5.40;;;;;;;;;;4946846;28;20084;-70
2023/03/31 10:51:22;;;;;;;20.40;6.18;;;;;;;;;;4916478;28;21166;-70
2023/03/31 10:53:48;;;;;;;16.15;5.60;;;;;;;;;;4915763;28;20039;-69
2023/03/31 10:56:24;;;;;;;22.33;6.80;;;;;;;;;;4916996;28;20074;-68
2023/03/31 10:59:11;;;;;;;21.40;7.45;;;;;;;;;;4915186;28;20574;-70
2023/03/31 11:02:01;;;;;;;28.17;6.30;;;;;;;;;;4919006;28;20047;-69
2023/03/31 11:04:38;;;;;;;26.13;6.40;;;;;;;;;;4918541;28;20031;-69
2023/03/31 11:07:11;;;;;;;28.65;6.78;;;;;;;;;;4916970;28;20031;-70
2023/03/31 11:09:47;;;;;;;28.23;6.63;;;;;;;;;;4925254;28;20050;-69
2023/03/31 11:12:15;;;;;;;26.02;6.85;;;;;;;;;;4959679;28;20037;-70
2023/03/31 11:14:59;;;;;;;18.27;5.05;;;;;;;;;;4917710;28;20104;-70
2023/03/31 11:17:30;;;;;;;18.40;5.13;;;;;;;;;;4921409;28;20552;-70
2023/03/31 11:19:55;;;;;;;21.07;5.30;;;;;;;;;;4915290;28;20142;-69
2023/03/31 11:22:39;;;;;;;24.25;4.13;;;;;;;;;;4916613;28;20455;-69
2023/03/31 11:25:23;;;;;;;18.02;3.47;;;;;;;;;;4921798;28;20173;-69
2023/03/31 11:28:16;;;;;;;17.55;2.85;;;;;;;;;;4919524;28;20050;-70
2023/03/31 11:30:53;;;;;;;19.63;5.00;;;;;;;;;;4927454;28;20229;-69
2023/03/31 11:33:37;;;;;;;23.80;6.50;;;;;;;;;;4917648;28;20047;-70
2023/03/31 11:36:05;;;;;;;19.65;6.57;;;;;;;;;;4919851;28;20404;-69
2023/03/31 11:38:37;;;;;;;22.20;5.40;;;;;;;;;;4918279;28;20043;-63
2023/03/31 11:41:28;;;;;;;28.75;6.63;;;;;;;;;;4919360;28;20493;-65
2023/03/31 11:44:02;;;;;;;27.48;9.40;;;;;;;;;;4916590;28;20046;-65
2023/03/31 11:46:47;;;;;;;26.33;9.20;;;;;;;;;;4913490;28;20043;-65
2023/03/31 11:49:37;;;;;;;28.88;9.57;;;;;;;;;;4948113;28;20282;-66
2023/03/31 11:52:08;;;;;;;22.65;7.72;;;;;;;;;;4889461;28;20039;-64
2023/03/31 11:54:54;;;;;;;27.45;9.57;;;;;;;;;;4918899;28;20085;-65
2023/03/31 11:57:22;;;;;;;19.10;7.97;;;;;;;;;;4932577;28;20093;-66
2023/03/31 11:59:52;;;;;;;15.57;6.13;;;;;;;;;;4918251;28;20043;-64
2023/03/31 12:02:35;;;;;;;15.82;7.20;;;;;;;;;;4918005;28;20036;-64
2023/03/31 12:05:03;;;;;;;20.23;7.75;;;;;;;;;;4919586;28;20070;-65
2023/03/31 12:07:36;;;;;;;16.35;7.70;;;;;;;;;;4916920;28;20473;-65
2023/03/31 12:10:07;;;;;;;16.52;6.25;;;;;;;;;;4921708;28;20501;-64
2023/03/31 12:12:34;;;;;;;15.00;4.90;;;;;;;;;;4948630;28;20299;-66
2023/03/31 12:14:59;;;;;;;16.70;5.78;;;;;;;;;;4919271;28;20422;-65
2023/03/31 12:17:25;;;;;;;21.90;6.22;;;;;;;;;;4907591;28;20274;-65
2023/03/31 12:19:59;;;;;;;15.35;5.68;;;;;;;;;;4918928;28;20046;-64
2023/03/31 12:22:30;;;;;;;21.33;7.30;;;;;;;;;;4918680;28;20058;-65
2023/03/31 12:24:55;;;;;;;23.38;6.38;;;;;;;;;;4912101;28;20044;-65
2023/03/31 12:27:27;;;;;;;21.17;7.97;;;;;;;;;;4918807;28;20428;-66
2023/03/31 12:30:00;;;;;;;18.35;7.90;;;;;;;;;;4919843;28;20132;-66
2023/03/31 12:32:29;;;;;;;20.45;6.97;;;;;;;;;;4917962;28;20233;-66
2023/03/31 12:35:13;;;;;;;16.33;5.22;;;;;;;;;;4917603;28;20039;-65
2023/03/31 12:37:56;;;;;;;16.23;5.80;;;;;;;;;;4917508;28;20039;-65
2023/03/31 12:40:22;;;;;;;18.83;6.68;;;;;;;;;;4913216;28;20079;-64
2023/03/31 12:43:03;;;;;;;21.15;6.47;;;;;;;;;;4918805;28;20066;-64
2023/03/31 12:45:51;;;;;;;19.65;4.93;;;;;;;;;;4932122;28;20038;-64
2023/03/31 12:48:16;;;;;;;18.40;4.13;;;;;;;;;;4881959;28;20130;-65
2023/03/31 12:51:01;;;;;;;18.13;6.07;;;;;;;;;;4921880;28;20406;-65
2023/03/31 12:53:40;;;;;;;21.10;6.53;;;;;;;;;;4916270;28;20039;-64
2023/03/31 12:56:06;;;;;;;12.10;3.92;;;;;;;;;;4917384;28;21877;-63
2023/03/31 12:58:36;;;;;;;13.02;4.32;;;;;;;;;;4918222;28;20144;-64
2023/03/31 13:01:06;;;;;;;12.70;3.50;;;;;;;;;;4918325;28;20599;-65
2023/03/31 13:03:34;;;;;;;16.80;6.45;;;;;;;;;;4917504;28;20073;-65
2023/03/31 13:06:01;;;;;;;25.08;7.95;;;;;;;;;;4904966;28;20114;-64
2023/03/31 13:08:49;;;;;;;17.75;5.90;;;;;;;;;;4912237;28;20050;-64
2023/03/31 13:11:16;;;;;;;16.27;5.60;;;;;;;;;;4919287;28;20043;-64
2023/03/31 13:14:01;;;;;;;13.27;5.05;;;;;;;;;;4912695;28;20670;-64
2023/03/31 13:16:26;;;;;;;16.02;5.53;;;;;;;;;;4932240;28;20046;-64
2023/03/31 13:18:53;;;;;;;16.60;5.10;;;;;;;;;;4917727;28;20043;-65
2023/03/31 13:21:21;;;;;;;11.73;4.45;;;;;;;;;;4919210;28;20051;-64
2023/03/31 13:23:47;;;;;;;10.48;4.63;;;;;;;;;;4921502;28;20049;-66
2023/03/31 13:26:31;;;;;;;16.45;5.70;;;;;;;;;;4921521;28;20039;-65
2023/03/31 13:29:15;;;;;;;11.13;5.75;;;;;;;;;;4920706;28;20070;-64
2023/03/31 13:31:59;;;;;;;15.10;4.65;;;;;;;;;;4922064;28;20045;-67
2023/03/31 13:34:26;;;;;;;13.02;4.70;;;;;;;;;;4920793;28;20046;-64
2023/03/31 13:37:12;;;;;;;18.60;6.28;;;;;;;;;;4920971;28;20156;-64
2023/03/31 13:39:46;;;;;;;15.70;6.82;;;;;;;;;;4919831;28;20406;-66
2023/03/31 13:42:18;;;;;;;17.58;6.90;;;;;;;;;;4920597;28;20687;-65
2023/03/31 13:44:43;;;;;;;19.20;6.63;;;;;;;;;;4917028;28;20741;-65
2023/03/31 13:47:33;;;;;;;16.02;7.30;;;;;;;;;;4921375;28;20023;-64
2023/03/31 13:50:17;;;;;;;9.10;5.05;;;;;;;;;;4922928;28;20058;-64
2023/03/31 13:52:51;;;;;;;11.73;4.47;;;;;;;;;;4921298;28;20589;-65
2023/03/31 13:55:34;;;;;;;16.58;4.78;;;;;;;;;;4922213;28;20036;-65
2023/03/31 13:58:09;;;;;;;11.00;3.95;;;;;;;;;;4914705;28;20135;-66
2023/03/31 14:01:00;;;;;;;15.35;6.68;;;;;;;;;;5002373;28;20035;-65
2023/03/31 14:03:46;;;;;;;13.15;4.97;;;;;;;;;;4950338;28;20043;-65
2023/03/31 14:06:30;;;;;;;18.25;6.38;;;;;;;;;;4921567;28;20036;-65
2023/03/31 14:08:56;;;;;;;12.13;5.32;;;;;;;;;;4943664;28;20411;-65
2023/03/31 14:11:29;;;;;;;18.50;6.55;;;;;;;;;;4920956;28;20357;-64
2023/03/31 14:13:58;;;;;;;17.55;7.18;;;;;;;;;;4920566;28;20040;-65
2023/03/31 14:16:24;;;;;;;11.75;4.85;;;;;;;;;;4914069;28;20608;-66
2023/03/31 14:18:53;;;;;;;12.27;4.75;;;;;;;;;;4901801;28;20070;-65
2023/03/31 14:21:20;;;;;;;12.88;6.43;;;;;;;;;;4920385;28;20050;-65
2023/03/31 14:23:54;;;;;;;15.77;6.65;;;;;;;;;;4920623;28;20359;-66
2023/03/31 14:26:25;;;;;;;15.50;6.22;;;;;;;;;;4920521;28;20039;-65
2023/03/31 14:28:53;;;;;;;17.48;8.23;;;;;;;;;;4920434;28;20035;-67
2023/03/31 14:31:24;;;;;;;14.63;6.35;;;;;;;;;;4919510;28;20043;-66
2023/03/31 14:33:58;;;;;;;12.98;5.40;;;;;;;;;;4918287;28;20120;-66
2023/03/31 14:36:36;;;;;;;15.23;6.35;;;;;;;;;;4922312;28;20053;-65
2023/03/31 14:39:04;;;;;;;19.25;7.05;;;;;;;;;;4949558;28;20562;-66